MDPC - Punta Cana
MDPC 230400Z 16007KT 9999 FEW016 SCT080 28/24 Q1015
Observed:
Wind:
visibility:
Flight Rules:
Cloud Levels:
Temperature:
Humidity:
Pressure: